Terminal Aerodrome Forecast
Issued by NWS

Home | Current Version | Previous Version | Text Only | Print | Product List | Glossary On
Versions: 1 2 3 4 5 6 7 8 9 10 11 12 13 14 15 16 17
000
FTUS41 KAKQ 271209 AAA
TAFPHF
TAF AMD
KPHF 271209Z 2712/2812 21010KT P6SM BKN015 BKN250
     FM271500 21012G20KT P6SM BKN040
     FM272300 21008KT P6SM BKN040=

USA.gov is the U.S. government's official web portal to all federal, state and local government web resources and services.